Blanford, Indiana
Current Conditions -  °F | °C
As of 2:15 AM on Sunday 23 Nov 2014 (Local Time) from KPRG Reporting Station
Overcast Overcast  
Wind Chill: 43°   Ceiling: 10000
Heat Index: 48°   Visibility: 10mi
Dew Point: 44°   Wind: 10mph
Humidity: 87%   Direction: 130°SE
Pressure: 29.9"   Gusts: NA
Location:  39.66°N, 87.52°W
Report Text: KPRG 230715Z AUTO 13009KT 10SM SCT075 OVC100 09/07 A2990 RMK AO2 T00880067
Loading
Personal Weather Stations






























Interactive Weather Map New forecast layout! Learn more

10-Day Weather Forecast

Advertisements
Track Severe Weather on mobile